sensor_id;sensor_type;location;lat;lon;timestamp;temperature;humidity
19248;DHT22;9758;48.640;8.148;2023-06-14T00:00:33;21.50;24.40
19248;DHT22;9758;48.640;8.148;2023-06-14T00:03:00;21.50;24.40
19248;DHT22;9758;48.640;8.148;2023-06-14T00:05:28;21.50;24.50
19248;DHT22;9758;48.640;8.148;2023-06-14T00:07:58;21.50;24.50
19248;DHT22;9758;48.640;8.148;2023-06-14T00:10:26;21.50;24.60
19248;DHT22;9758;48.640;8.148;2023-06-14T00:12:56;21.40;24.50
19248;DHT22;9758;48.640;8.148;2023-06-14T00:15:26;21.40;24.50
19248;DHT22;9758;48.640;8.148;2023-06-14T00:17:53;21.40;24.50
19248;DHT22;9758;48.640;8.148;2023-06-14T00:20:22;21.40;24.60
19248;DHT22;9758;48.640;8.148;2023-06-14T00:22:48;21.30;24.60
19248;DHT22;9758;48.640;8.148;2023-06-14T00:25:15;21.30;24.60
19248;DHT22;9758;48.640;8.148;2023-06-14T00:27:42;21.30;24.60
19248;DHT22;9758;48.640;8.148;2023-06-14T00:30:10;21.20;24.60
19248;DHT22;9758;48.640;8.148;2023-06-14T00:32:38;21.20;24.70
19248;DHT22;9758;48.640;8.148;2023-06-14T00:35:05;21.10;24.60
19248;DHT22;9758;48.640;8.148;2023-06-14T00:37:33;21.10;24.70
19248;DHT22;9758;48.640;8.148;2023-06-14T00:40:00;21.00;24.70
19248;DHT22;9758;48.640;8.148;2023-06-14T00:42:27;21.00;24.70
19248;DHT22;9758;48.640;8.148;2023-06-14T00:44:54;20.90;24.80
19248;DHT22;9758;48.640;8.148;2023-06-14T00:47:22;20.90;24.90
19248;DHT22;9758;48.640;8.148;2023-06-14T00:49:51;20.80;24.80
19248;DHT22;9758;48.640;8.148;2023-06-14T00:52:19;20.80;24.90
19248;DHT22;9758;48.640;8.148;2023-06-14T00:54:46;20.70;24.90
19248;DHT22;9758;48.640;8.148;2023-06-14T00:57:13;20.70;24.90
19248;DHT22;9758;48.640;8.148;2023-06-14T00:59:43;20.60;24.90
19248;DHT22;9758;48.640;8.148;2023-06-14T01:02:10;20.70;25.00
19248;DHT22;9758;48.640;8.148;2023-06-14T01:04:38;20.60;25.00
19248;DHT22;9758;48.640;8.148;2023-06-14T01:07:11;20.60;25.00
19248;DHT22;9758;48.640;8.148;2023-06-14T01:09:55;20.60;25.00
19248;DHT22;9758;48.640;8.148;2023-06-14T01:12:31;20.50;25.20
19248;DHT22;9758;48.640;8.148;2023-06-14T01:15:02;20.50;25.20
19248;DHT22;9758;48.640;8.148;2023-06-14T01:17:29;20.50;25.20
19248;DHT22;9758;48.640;8.148;2023-06-14T01:19:58;20.40;25.30
19248;DHT22;9758;48.640;8.148;2023-06-14T01:22:27;20.40;25.20
19248;DHT22;9758;48.640;8.148;2023-06-14T01:25:09;20.40;25.20
19248;DHT22;9758;48.640;8.148;2023-06-14T01:27:37;20.40;25.20
19248;DHT22;9758;48.640;8.148;2023-06-14T01:30:06;20.40;25.30
19248;DHT22;9758;48.640;8.148;2023-06-14T01:32:33;20.40;25.20
19248;DHT22;9758;48.640;8.148;2023-06-14T01:35:00;20.40;25.30
19248;DHT22;9758;48.640;8.148;2023-06-14T01:37:27;20.40;25.30
19248;DHT22;9758;48.640;8.148;2023-06-14T01:39:54;20.40;25.30
19248;DHT22;9758;48.640;8.148;2023-06-14T01:42:23;20.30;25.30
19248;DHT22;9758;48.640;8.148;2023-06-14T01:44:52;20.30;25.30
19248;DHT22;9758;48.640;8.148;2023-06-14T01:47:20;20.30;25.40
19248;DHT22;9758;48.640;8.148;2023-06-14T01:49:47;20.30;25.50
19248;DHT22;9758;48.640;8.148;2023-06-14T01:52:14;20.20;25.50
19248;DHT22;9758;48.640;8.148;2023-06-14T01:54:40;20.20;25.40
19248;DHT22;9758;48.640;8.148;2023-06-14T01:57:08;20.20;25.50
19248;DHT22;9758;48.640;8.148;2023-06-14T01:59:37;20.20;25.50
19248;DHT22;9758;48.640;8.148;2023-06-14T02:02:04;20.20;25.60
19248;DHT22;9758;48.640;8.148;2023-06-14T02:04:31;20.20;25.60
19248;DHT22;9758;48.640;8.148;2023-06-14T02:06:57;20.10;25.60
19248;DHT22;9758;48.640;8.148;2023-06-14T02:09:24;20.20;25.60
19248;DHT22;9758;48.640;8.148;2023-06-14T02:11:51;20.10;25.50
19248;DHT22;9758;48.640;8.148;2023-06-14T02:14:18;20.20;25.50
19248;DHT22;9758;48.640;8.148;2023-06-14T02:16:46;20.20;25.50
19248;DHT22;9758;48.640;8.148;2023-06-14T02:19:14;20.20;25.60
19248;DHT22;9758;48.640;8.148;2023-06-14T02:21:41;20.20;25.50
19248;DHT22;9758;48.640;8.148;2023-06-14T02:24:08;20.20;25.60
19248;DHT22;9758;48.640;8.148;2023-06-14T02:26:35;20.20;25.60
19248;DHT22;9758;48.640;8.148;2023-06-14T02:29:03;20.20;25.50
19248;DHT22;9758;48.640;8.148;2023-06-14T02:31:30;20.20;25.50
19248;DHT22;9758;48.640;8.148;2023-06-14T02:33:59;20.20;25.70
19248;DHT22;9758;48.640;8.148;2023-06-14T02:36:25;20.20;25.50
19248;DHT22;9758;48.640;8.148;2023-06-14T02:38:52;20.20;25.50
19248;DHT22;9758;48.640;8.148;2023-06-14T02:41:19;20.20;25.50
19248;DHT22;9758;48.640;8.148;2023-06-14T02:43:46;20.20;25.60
19248;DHT22;9758;48.640;8.148;2023-06-14T02:46:13;20.10;25.60
19248;DHT22;9758;48.640;8.148;2023-06-14T02:48:40;20.10;25.50
19248;DHT22;9758;48.640;8.148;2023-06-14T02:51:08;20.10;25.60
19248;DHT22;9758;48.640;8.148;2023-06-14T02:53:35;20.10;25.60
19248;DHT22;9758;48.640;8.148;2023-06-14T02:56:01;20.00;25.50
19248;DHT22;9758;48.640;8.148;2023-06-14T02:58:29;20.00;25.60
19248;DHT22;9758;48.640;8.148;2023-06-14T03:00:56;20.00;25.60
19248;DHT22;9758;48.640;8.148;2023-06-14T03:03:23;20.00;25.60
19248;DHT22;9758;48.640;8.148;2023-06-14T03:05:50;19.90;25.70
19248;DHT22;9758;48.640;8.148;2023-06-14T03:08:18;19.90;25.80
19248;DHT22;9758;48.640;8.148;2023-06-14T03:10:46;19.80;25.90
19248;DHT22;9758;48.640;8.148;2023-06-14T03:13:13;19.70;25.90
19248;DHT22;9758;48.640;8.148;2023-06-14T03:15:41;19.70;25.90
19248;DHT22;9758;48.640;8.148;2023-06-14T03:18:08;19.70;26.00
19248;DHT22;9758;48.640;8.148;2023-06-14T03:20:35;19.70;25.90
19248;DHT22;9758;48.640;8.148;2023-06-14T03:23:02;19.70;25.90
19248;DHT22;9758;48.640;8.148;2023-06-14T03:25:31;19.70;25.90
19248;DHT22;9758;48.640;8.148;2023-06-14T03:28:01;19.70;25.90
19248;DHT22;9758;48.640;8.148;2023-06-14T03:30:28;19.70;25.80
19248;DHT22;9758;48.640;8.148;2023-06-14T03:32:54;19.70;25.90
19248;DHT22;9758;48.640;8.148;2023-06-14T03:35:22;19.70;25.80
19248;DHT22;9758;48.640;8.148;2023-06-14T03:37:49;19.80;25.90
19248;DHT22;9758;48.640;8.148;2023-06-14T03:40:17;19.80;25.80
19248;DHT22;9758;48.640;8.148;2023-06-14T03:42:46;19.80;25.80
19248;DHT22;9758;48.640;8.148;2023-06-14T03:45:13;19.80;25.80
19248;DHT22;9758;48.640;8.148;2023-06-14T03:47:40;19.80;25.80
19248;DHT22;9758;48.640;8.148;2023-06-14T03:50:07;19.80;25.70
19248;DHT22;9758;48.640;8.148;2023-06-14T03:52:34;19.90;25.80
19248;DHT22;9758;48.640;8.148;2023-06-14T03:55:01;19.90;25.70
19248;DHT22;9758;48.640;8.148;2023-06-14T03:57:29;19.90;25.70
19248;DHT22;9758;48.640;8.148;2023-06-14T03:59:57;19.90;25.80
19248;DHT22;9758;48.640;8.148;2023-06-14T04:02:24;19.90;25.80
19248;DHT22;9758;48.640;8.148;2023-06-14T04:04:54;19.90;25.70
19248;DHT22;9758;48.640;8.148;2023-06-14T04:07:21;19.90;25.80
19248;DHT22;9758;48.640;8.148;2023-06-14T04:09:48;19.90;26.30
19248;DHT22;9758;48.640;8.148;2023-06-14T04:12:15;19.90;25.80
19248;DHT22;9758;48.640;8.148;2023-06-14T04:14:42;19.90;25.80
19248;DHT22;9758;48.640;8.148;2023-06-14T04:17:10;19.90;25.80
19248;DHT22;9758;48.640;8.148;2023-06-14T04:19:37;19.90;25.80
19248;DHT22;9758;48.640;8.148;2023-06-14T04:22:04;19.90;25.90
19248;DHT22;9758;48.640;8.148;2023-06-14T04:24:31;19.90;25.90
19248;DHT22;9758;48.640;8.148;2023-06-14T04:27:00;19.90;25.90
19248;DHT22;9758;48.640;8.148;2023-06-14T04:29:27;19.90;25.80
19248;DHT22;9758;48.640;8.148;2023-06-14T04:31:55;19.90;25.80
19248;DHT22;9758;48.640;8.148;2023-06-14T04:34:25;19.90;25.90
19248;DHT22;9758;48.640;8.148;2023-06-14T04:36:55;19.90;25.90
19248;DHT22;9758;48.640;8.148;2023-06-14T04:39:23;19.90;25.90
19248;DHT22;9758;48.640;8.148;2023-06-14T04:41:50;19.90;25.90
19248;DHT22;9758;48.640;8.148;2023-06-14T04:44:19;19.90;26.00
19248;DHT22;9758;48.640;8.148;2023-06-14T04:46:46;19.90;25.90
19248;DHT22;9758;48.640;8.148;2023-06-14T04:49:13;19.90;26.00
19248;DHT22;9758;48.640;8.148;2023-06-14T04:51:42;19.90;26.00
19248;DHT22;9758;48.640;8.148;2023-06-14T04:54:09;19.90;26.10
19248;DHT22;9758;48.640;8.148;2023-06-14T04:56:39;19.90;26.10
19248;DHT22;9758;48.640;8.148;2023-06-14T04:59:13;19.90;26.10
19248;DHT22;9758;48.640;8.148;2023-06-14T05:01:42;19.90;26.10
19248;DHT22;9758;48.640;8.148;2023-06-14T05:04:13;19.80;26.10
19248;DHT22;9758;48.640;8.148;2023-06-14T05:06:41;19.80;26.20
19248;DHT22;9758;48.640;8.148;2023-06-14T05:09:10;19.80;26.20
19248;DHT22;9758;48.640;8.148;2023-06-14T05:11:37;19.80;26.20
19248;DHT22;9758;48.640;8.148;2023-06-14T05:14:03;19.80;26.30
19248;DHT22;9758;48.640;8.148;2023-06-14T05:16:31;19.80;26.30
19248;DHT22;9758;48.640;8.148;2023-06-14T05:18:58;19.90;26.40
19248;DHT22;9758;48.640;8.148;2023-06-14T05:21:25;19.90;26.40
19248;DHT22;9758;48.640;8.148;2023-06-14T05:23:53;20.00;26.40
19248;DHT22;9758;48.640;8.148;2023-06-14T05:26:19;20.00;26.40
19248;DHT22;9758;48.640;8.148;2023-06-14T05:28:49;20.10;26.50
19248;DHT22;9758;48.640;8.148;2023-06-14T05:31:18;20.10;26.50
19248;DHT22;9758;48.640;8.148;2023-06-14T05:33:44;20.20;26.60
19248;DHT22;9758;48.640;8.148;2023-06-14T05:36:11;20.20;26.60
19248;DHT22;9758;48.640;8.148;2023-06-14T05:38:38;20.30;26.50
19248;DHT22;9758;48.640;8.148;2023-06-14T05:41:06;20.30;26.50
19248;DHT22;9758;48.640;8.148;2023-06-14T05:43:32;20.40;26.60
19248;DHT22;9758;48.640;8.148;2023-06-14T05:45:59;20.50;26.70
19248;DHT22;9758;48.640;8.148;2023-06-14T05:48:26;20.50;26.70
19248;DHT22;9758;48.640;8.148;2023-06-14T05:50:53;20.60;26.60
19248;DHT22;9758;48.640;8.148;2023-06-14T05:53:19;20.70;26.70
19248;DHT22;9758;48.640;8.148;2023-06-14T05:55:46;20.80;26.80
19248;DHT22;9758;48.640;8.148;2023-06-14T05:58:14;20.80;26.80
19248;DHT22;9758;48.640;8.148;2023-06-14T06:00:41;20.90;26.90
19248;DHT22;9758;48.640;8.148;2023-06-14T06:03:07;21.00;26.90
19248;DHT22;9758;48.640;8.148;2023-06-14T06:05:34;21.00;26.90
19248;DHT22;9758;48.640;8.148;2023-06-14T06:08:01;21.10;26.90
19248;DHT22;9758;48.640;8.148;2023-06-14T06:10:28;21.10;26.90
19248;DHT22;9758;48.640;8.148;2023-06-14T06:12:54;21.10;27.40
19248;DHT22;9758;48.640;8.148;2023-06-14T06:15:22;21.00;27.40
19248;DHT22;9758;48.640;8.148;2023-06-14T06:17:49;21.00;27.50
19248;DHT22;9758;48.640;8.148;2023-06-14T06:20:16;20.90;28.30
19248;DHT22;9758;48.640;8.148;2023-06-14T06:22:43;20.70;28.00
19248;DHT22;9758;48.640;8.148;2023-06-14T06:25:10;20.60;28.10
19248;DHT22;9758;48.640;8.148;2023-06-14T06:27:48;20.50;28.50
19248;DHT22;9758;48.640;8.148;2023-06-14T06:30:16;20.40;28.80
19248;DHT22;9758;48.640;8.148;2023-06-14T06:32:44;20.40;28.20
19248;DHT22;9758;48.640;8.148;2023-06-14T06:35:11;20.50;28.30
19248;DHT22;9758;48.640;8.148;2023-06-14T06:37:39;20.50;28.30
19248;DHT22;9758;48.640;8.148;2023-06-14T06:40:07;20.60;28.30
19248;DHT22;9758;48.640;8.148;2023-06-14T06:42:34;20.60;28.50
19248;DHT22;9758;48.640;8.148;2023-06-14T06:45:01;20.60;28.20
19248;DHT22;9758;48.640;8.148;2023-06-14T06:47:27;20.70;28.20
19248;DHT22;9758;48.640;8.148;2023-06-14T06:50:07;20.80;28.30
19248;DHT22;9758;48.640;8.148;2023-06-14T06:52:34;20.90;28.30
19248;DHT22;9758;48.640;8.148;2023-06-14T06:55:01;21.00;28.20
19248;DHT22;9758;48.640;8.148;2023-06-14T06:57:28;21.10;28.20
19248;DHT22;9758;48.640;8.148;2023-06-14T06:59:55;21.10;28.10
19248;DHT22;9758;48.640;8.148;2023-06-14T07:02:22;21.20;28.00
19248;DHT22;9758;48.640;8.148;2023-06-14T07:04:49;21.30;28.00
19248;DHT22;9758;48.640;8.148;2023-06-14T07:07:17;21.30;28.00
19248;DHT22;9758;48.640;8.148;2023-06-14T07:09:44;21.40;28.00
19248;DHT22;9758;48.640;8.148;2023-06-14T07:12:11;21.50;28.00
19248;DHT22;9758;48.640;8.148;2023-06-14T07:14:38;21.60;28.20
19248;DHT22;9758;48.640;8.148;2023-06-14T07:17:05;21.70;28.00
19248;DHT22;9758;48.640;8.148;2023-06-14T07:19:32;21.80;28.00
19248;DHT22;9758;48.640;8.148;2023-06-14T07:21:58;21.90;28.20
19248;DHT22;9758;48.640;8.148;2023-06-14T07:24:27;21.90;28.10
19248;DHT22;9758;48.640;8.148;2023-06-14T07:26:54;22.00;28.20
19248;DHT22;9758;48.640;8.148;2023-06-14T07:29:21;22.00;28.00
19248;DHT22;9758;48.640;8.148;2023-06-14T07:31:48;22.00;28.00
19248;DHT22;9758;48.640;8.148;2023-06-14T07:34:15;22.10;27.90
19248;DHT22;9758;48.640;8.148;2023-06-14T07:36:42;22.20;27.90
19248;DHT22;9758;48.640;8.148;2023-06-14T07:39:09;22.30;28.00
19248;DHT22;9758;48.640;8.148;2023-06-14T07:41:38;22.40;27.80
19248;DHT22;9758;48.640;8.148;2023-06-14T07:44:05;22.40;27.70
19248;DHT22;9758;48.640;8.148;2023-06-14T07:46:31;22.50;28.10
19248;DHT22;9758;48.640;8.148;2023-06-14T07:49:00;22.60;27.90
19248;DHT22;9758;48.640;8.148;2023-06-14T07:51:26;22.70;27.60
19248;DHT22;9758;48.640;8.148;2023-06-14T07:53:53;22.70;27.60
19248;DHT22;9758;48.640;8.148;2023-06-14T07:56:20;22.70;27.50
19248;DHT22;9758;48.640;8.148;2023-06-14T07:58:48;22.80;27.50
19248;DHT22;9758;48.640;8.148;2023-06-14T08:01:15;22.80;27.70
19248;DHT22;9758;48.640;8.148;2023-06-14T08:03:42;22.90;27.70
19248;DHT22;9758;48.640;8.148;2023-06-14T08:06:09;22.90;27.60
19248;DHT22;9758;48.640;8.148;2023-06-14T08:08:35;23.00;27.70
19248;DHT22;9758;48.640;8.148;2023-06-14T08:11:02;23.10;27.60
19248;DHT22;9758;48.640;8.148;2023-06-14T08:13:29;23.10;27.60
19248;DHT22;9758;48.640;8.148;2023-06-14T08:15:57;23.20;27.60
19248;DHT22;9758;48.640;8.148;2023-06-14T08:18:26;23.30;27.60
19248;DHT22;9758;48.640;8.148;2023-06-14T08:20:53;23.40;27.60
19248;DHT22;9758;48.640;8.148;2023-06-14T08:23:20;23.50;27.60
19248;DHT22;9758;48.640;8.148;2023-06-14T08:25:47;23.60;27.90
19248;DHT22;9758;48.640;8.148;2023-06-14T08:28:14;23.70;27.50
19248;DHT22;9758;48.640;8.148;2023-06-14T08:30:42;23.80;27.50
19248;DHT22;9758;48.640;8.148;2023-06-14T08:33:10;23.90;27.50
19248;DHT22;9758;48.640;8.148;2023-06-14T08:35:37;23.90;27.40
19248;DHT22;9758;48.640;8.148;2023-06-14T08:38:05;24.10;27.50
19248;DHT22;9758;48.640;8.148;2023-06-14T08:40:37;24.10;27.50
19248;DHT22;9758;48.640;8.148;2023-06-14T08:43:04;24.20;27.60
19248;DHT22;9758;48.640;8.148;2023-06-14T08:45:31;24.30;27.80
19248;DHT22;9758;48.640;8.148;2023-06-14T08:47:58;24.40;27.50
19248;DHT22;9758;48.640;8.148;2023-06-14T08:50:27;24.40;28.10
19248;DHT22;9758;48.640;8.148;2023-06-14T08:52:56;24.50;27.70
19248;DHT22;9758;48.640;8.148;2023-06-14T08:55:27;24.60;27.60
19248;DHT22;9758;48.640;8.148;2023-06-14T08:57:56;24.70;27.60
19248;DHT22;9758;48.640;8.148;2023-06-14T09:00:24;24.80;27.80
19248;DHT22;9758;48.640;8.148;2023-06-14T09:02:52;24.90;27.70
19248;DHT22;9758;48.640;8.148;2023-06-14T09:05:23;25.00;27.60
19248;DHT22;9758;48.640;8.148;2023-06-14T09:07:52;25.00;27.60
19248;DHT22;9758;48.640;8.148;2023-06-14T09:10:21;25.00;27.60
19248;DHT22;9758;48.640;8.148;2023-06-14T09:12:48;25.10;27.70
19248;DHT22;9758;48.640;8.148;2023-06-14T09:15:15;25.10;27.60
19248;DHT22;9758;48.640;8.148;2023-06-14T09:17:43;25.10;27.80
19248;DHT22;9758;48.640;8.148;2023-06-14T09:20:10;25.10;27.60
19248;DHT22;9758;48.640;8.148;2023-06-14T09:22:39;25.20;27.60
19248;DHT22;9758;48.640;8.148;2023-06-14T09:25:09;25.30;27.60
19248;DHT22;9758;48.640;8.148;2023-06-14T09:27:37;25.40;27.60
19248;DHT22;9758;48.640;8.148;2023-06-14T09:30:06;25.50;27.60
19248;DHT22;9758;48.640;8.148;2023-06-14T09:32:37;25.50;27.50
19248;DHT22;9758;48.640;8.148;2023-06-14T09:35:04;25.60;27.60
19248;DHT22;9758;48.640;8.148;2023-06-14T09:37:32;25.70;27.60
19248;DHT22;9758;48.640;8.148;2023-06-14T09:40:00;25.70;27.50
19248;DHT22;9758;48.640;8.148;2023-06-14T09:42:29;25.90;28.30
19248;DHT22;9758;48.640;8.148;2023-06-14T09:44:56;25.90;27.50
19248;DHT22;9758;48.640;8.148;2023-06-14T09:47:24;26.00;27.50
19248;DHT22;9758;48.640;8.148;2023-06-14T09:49:52;26.00;27.60
19248;DHT22;9758;48.640;8.148;2023-06-14T09:52:21;26.00;27.50
19248;DHT22;9758;48.640;8.148;2023-06-14T09:54:48;26.10;27.50
19248;DHT22;9758;48.640;8.148;2023-06-14T09:57:16;26.10;27.50
19248;DHT22;9758;48.640;8.148;2023-06-14T09:59:46;26.10;27.40
19248;DHT22;9758;48.640;8.148;2023-06-14T10:02:21;26.10;27.20
19248;DHT22;9758;48.640;8.148;2023-06-14T10:04:53;26.20;27.30
19248;DHT22;9758;48.640;8.148;2023-06-14T10:07:23;26.20;27.30
19248;DHT22;9758;48.640;8.148;2023-06-14T10:09:53;26.20;27.30
19248;DHT22;9758;48.640;8.148;2023-06-14T10:12:20;26.40;27.20
19248;DHT22;9758;48.640;8.148;2023-06-14T10:14:50;26.40;27.20
19248;DHT22;9758;48.640;8.148;2023-06-14T10:17:24;26.50;27.10
19248;DHT22;9758;48.640;8.148;2023-06-14T10:19:56;26.60;27.30
19248;DHT22;9758;48.640;8.148;2023-06-14T10:22:32;26.60;27.00
19248;DHT22;9758;48.640;8.148;2023-06-14T10:25:02;26.70;27.10
19248;DHT22;9758;48.640;8.148;2023-06-14T10:27:28;26.70;27.10
19248;DHT22;9758;48.640;8.148;2023-06-14T10:30:06;26.80;27.10
19248;DHT22;9758;48.640;8.148;2023-06-14T10:32:33;26.80;27.00
19248;DHT22;9758;48.640;8.148;2023-06-14T10:35:01;26.70;27.10
19248;DHT22;9758;48.640;8.148;2023-06-14T10:37:30;26.80;27.10
19248;DHT22;9758;48.640;8.148;2023-06-14T10:39:57;26.70;27.10
19248;DHT22;9758;48.640;8.148;2023-06-14T10:42:28;26.70;27.10
19248;DHT22;9758;48.640;8.148;2023-06-14T10:44:58;26.70;27.10
19248;DHT22;9758;48.640;8.148;2023-06-14T10:47:28;26.70;27.10
19248;DHT22;9758;48.640;8.148;2023-06-14T10:49:56;26.80;27.10
19248;DHT22;9758;48.640;8.148;2023-06-14T10:52:26;26.80;27.10
19248;DHT22;9758;48.640;8.148;2023-06-14T10:55:05;26.90;27.00
19248;DHT22;9758;48.640;8.148;2023-06-14T10:57:35;26.90;27.00
19248;DHT22;9758;48.640;8.148;2023-06-14T11:00:03;27.00;26.90
19248;DHT22;9758;48.640;8.148;2023-06-14T11:02:55;27.10;26.90
19248;DHT22;9758;48.640;8.148;2023-06-14T11:05:26;27.10;26.80
19248;DHT22;9758;48.640;8.148;2023-06-14T11:08:15;27.10;26.70
19248;DHT22;9758;48.640;8.148;2023-06-14T11:10:44;27.10;26.80
19248;DHT22;9758;48.640;8.148;2023-06-14T11:13:12;27.20;26.80
19248;DHT22;9758;48.640;8.148;2023-06-14T11:15:39;27.20;26.80
19248;DHT22;9758;48.640;8.148;2023-06-14T11:18:12;27.30;26.80
19248;DHT22;9758;48.640;8.148;2023-06-14T11:20:40;27.30;26.80
19248;DHT22;9758;48.640;8.148;2023-06-14T11:23:07;27.30;26.80
19248;DHT22;9758;48.640;8.148;2023-06-14T11:25:34;27.40;26.70
19248;DHT22;9758;48.640;8.148;2023-06-14T11:28:01;27.40;26.60
19248;DHT22;9758;48.640;8.148;2023-06-14T11:30:28;27.50;26.60
19248;DHT22;9758;48.640;8.148;2023-06-14T11:32:56;27.40;26.60
19248;DHT22;9758;48.640;8.148;2023-06-14T11:35:25;27.30;26.60
19248;DHT22;9758;48.640;8.148;2023-06-14T11:37:53;27.30;26.60
19248;DHT22;9758;48.640;8.148;2023-06-14T11:40:25;27.30;26.60
19248;DHT22;9758;48.640;8.148;2023-06-14T11:43:08;27.40;26.70
19248;DHT22;9758;48.640;8.148;2023-06-14T11:45:35;27.40;26.60
19248;DHT22;9758;48.640;8.148;2023-06-14T11:48:02;27.40;26.50
19248;DHT22;9758;48.640;8.148;2023-06-14T11:50:31;27.40;26.50
19248;DHT22;9758;48.640;8.148;2023-06-14T11:52:59;27.30;26.50
19248;DHT22;9758;48.640;8.148;2023-06-14T11:55:32;27.40;26.60
19248;DHT22;9758;48.640;8.148;2023-06-14T11:57:59;27.40;26.40
19248;DHT22;9758;48.640;8.148;2023-06-14T12:00:25;27.40;26.50
19248;DHT22;9758;48.640;8.148;2023-06-14T12:02:53;27.40;26.50
19248;DHT22;9758;48.640;8.148;2023-06-14T12:05:21;27.40;26.50
19248;DHT22;9758;48.640;8.148;2023-06-14T12:07:50;27.50;26.50
19248;DHT22;9758;48.640;8.148;2023-06-14T12:10:19;27.60;26.40
19248;DHT22;9758;48.640;8.148;2023-06-14T12:12:45;27.60;26.40
19248;DHT22;9758;48.640;8.148;2023-06-14T12:15:12;27.70;26.30
19248;DHT22;9758;48.640;8.148;2023-06-14T12:17:39;27.60;26.30
19248;DHT22;9758;48.640;8.148;2023-06-14T12:20:09;27.70;26.30
19248;DHT22;9758;48.640;8.148;2023-06-14T12:22:46;27.70;26.30
19248;DHT22;9758;48.640;8.148;2023-06-14T12:25:27;27.70;26.30
19248;DHT22;9758;48.640;8.148;2023-06-14T12:27:56;27.70;26.20
19248;DHT22;9758;48.640;8.148;2023-06-14T12:30:23;27.70;26.30
19248;DHT22;9758;48.640;8.148;2023-06-14T12:32:50;27.80;26.30
19248;DHT22;9758;48.640;8.148;2023-06-14T12:35:17;27.80;26.30
19248;DHT22;9758;48.640;8.148;2023-06-14T12:37:45;27.90;26.30
19248;DHT22;9758;48.640;8.148;2023-06-14T12:40:12;28.00;26.10
19248;DHT22;9758;48.640;8.148;2023-06-14T12:42:41;28.00;26.10
19248;DHT22;9758;48.640;8.148;2023-06-14T12:45:10;28.00;26.10
19248;DHT22;9758;48.640;8.148;2023-06-14T12:47:37;28.10;26.20
19248;DHT22;9758;48.640;8.148;2023-06-14T12:50:04;28.20;26.20
19248;DHT22;9758;48.640;8.148;2023-06-14T12:52:31;28.20;26.10
19248;DHT22;9758;48.640;8.148;2023-06-14T12:55:01;28.30;26.10
19248;DHT22;9758;48.640;8.148;2023-06-14T12:57:28;28.30;26.00
19248;DHT22;9758;48.640;8.148;2023-06-14T12:59:56;28.30;26.00
19248;DHT22;9758;48.640;8.148;2023-06-14T13:02:23;28.30;26.10
19248;DHT22;9758;48.640;8.148;2023-06-14T13:04:51;28.30;26.00
19248;DHT22;9758;48.640;8.148;2023-06-14T13:07:18;28.20;26.00
19248;DHT22;9758;48.640;8.148;2023-06-14T13:09:45;28.20;25.90
19248;DHT22;9758;48.640;8.148;2023-06-14T13:12:12;28.20;26.10
19248;DHT22;9758;48.640;8.148;2023-06-14T13:14:39;28.20;26.10
19248;DHT22;9758;48.640;8.148;2023-06-14T13:17:08;28.30;26.00
19248;DHT22;9758;48.640;8.148;2023-06-14T13:19:35;28.30;26.00
19248;DHT22;9758;48.640;8.148;2023-06-14T13:22:03;28.30;26.00
19248;DHT22;9758;48.640;8.148;2023-06-14T13:24:30;28.30;25.90
19248;DHT22;9758;48.640;8.148;2023-06-14T13:26:57;28.30;25.90
19248;DHT22;9758;48.640;8.148;2023-06-14T13:29:24;28.40;25.90
19248;DHT22;9758;48.640;8.148;2023-06-14T13:31:52;28.40;25.80
19248;DHT22;9758;48.640;8.148;2023-06-14T13:34:20;28.50;25.80
19248;DHT22;9758;48.640;8.148;2023-06-14T13:36:47;28.50;25.90
19248;DHT22;9758;48.640;8.148;2023-06-14T13:39:14;28.60;25.70
19248;DHT22;9758;48.640;8.148;2023-06-14T13:41:41;28.60;25.80
19248;DHT22;9758;48.640;8.148;2023-06-14T13:44:07;28.60;25.60
19248;DHT22;9758;48.640;8.148;2023-06-14T13:46:36;28.60;25.50
19248;DHT22;9758;48.640;8.148;2023-06-14T13:49:03;28.60;25.60
19248;DHT22;9758;48.640;8.148;2023-06-14T13:51:32;28.60;25.70
19248;DHT22;9758;48.640;8.148;2023-06-14T13:54:00;28.70;25.70
19248;DHT22;9758;48.640;8.148;2023-06-14T13:56:27;28.70;25.60
19248;DHT22;9758;48.640;8.148;2023-06-14T13:58:54;28.70;25.60
19248;DHT22;9758;48.640;8.148;2023-06-14T14:01:20;28.80;25.60
19248;DHT22;9758;48.640;8.148;2023-06-14T14:03:48;28.80;25.60
19248;DHT22;9758;48.640;8.148;2023-06-14T14:06:16;28.80;25.60
19248;DHT22;9758;48.640;8.148;2023-06-14T14:08:44;28.90;25.60
19248;DHT22;9758;48.640;8.148;2023-06-14T14:11:12;28.90;25.70
19248;DHT22;9758;48.640;8.148;2023-06-14T14:13:39;28.90;25.60
19248;DHT22;9758;48.640;8.148;2023-06-14T14:16:06;28.90;25.60
19248;DHT22;9758;48.640;8.148;2023-06-14T14:18:33;28.90;25.70
19248;DHT22;9758;48.640;8.148;2023-06-14T14:21:00;28.90;25.80
19248;DHT22;9758;48.640;8.148;2023-06-14T14:23:27;28.90;25.70
19248;DHT22;9758;48.640;8.148;2023-06-14T14:25:56;28.90;25.70
19248;DHT22;9758;48.640;8.148;2023-06-14T14:28:23;29.00;25.70
19248;DHT22;9758;48.640;8.148;2023-06-14T14:30:50;29.00;25.80
19248;DHT22;9758;48.640;8.148;2023-06-14T14:33:22;29.00;25.80
19248;DHT22;9758;48.640;8.148;2023-06-14T14:35:49;29.10;25.70
19248;DHT22;9758;48.640;8.148;2023-06-14T14:38:15;29.20;25.70
19248;DHT22;9758;48.640;8.148;2023-06-14T14:40:43;29.20;25.60
19248;DHT22;9758;48.640;8.148;2023-06-14T14:43:11;29.10;25.60
19248;DHT22;9758;48.640;8.148;2023-06-14T14:45:38;29.00;25.70
19248;DHT22;9758;48.640;8.148;2023-06-14T14:48:05;28.90;25.80
19248;DHT22;9758;48.640;8.148;2023-06-14T14:50:33;29.00;25.80
19248;DHT22;9758;48.640;8.148;2023-06-14T14:52:59;29.10;25.70
19248;DHT22;9758;48.640;8.148;2023-06-14T14:55:26;29.20;25.70
19248;DHT22;9758;48.640;8.148;2023-06-14T14:57:53;29.30;25.70
19248;DHT22;9758;48.640;8.148;2023-06-14T15:00:29;29.40;25.60
19248;DHT22;9758;48.640;8.148;2023-06-14T15:02:55;29.40;25.50
19248;DHT22;9758;48.640;8.148;2023-06-14T15:05:22;29.40;25.60
19248;DHT22;9758;48.640;8.148;2023-06-14T15:07:49;29.30;25.50
19248;DHT22;9758;48.640;8.148;2023-06-14T15:10:15;29.40;25.60
19248;DHT22;9758;48.640;8.148;2023-06-14T15:12:42;29.40;25.70
19248;DHT22;9758;48.640;8.148;2023-06-14T15:15:09;29.30;25.50
19248;DHT22;9758;48.640;8.148;2023-06-14T15:17:38;29.40;25.60
19248;DHT22;9758;48.640;8.148;2023-06-14T15:20:05;29.30;25.60
19248;DHT22;9758;48.640;8.148;2023-06-14T15:22:40;29.40;25.60
19248;DHT22;9758;48.640;8.148;2023-06-14T15:25:07;29.30;25.50
19248;DHT22;9758;48.640;8.148;2023-06-14T15:27:35;29.30;25.60
19248;DHT22;9758;48.640;8.148;2023-06-14T15:30:03;29.30;25.60
19248;DHT22;9758;48.640;8.148;2023-06-14T15:32:29;29.30;25.60
19248;DHT22;9758;48.640;8.148;2023-06-14T15:34:58;29.30;25.70
19248;DHT22;9758;48.640;8.148;2023-06-14T15:37:24;29.30;25.60
19248;DHT22;9758;48.640;8.148;2023-06-14T15:39:51;29.50;25.70
19248;DHT22;9758;48.640;8.148;2023-06-14T15:42:18;29.90;25.80
19248;DHT22;9758;48.640;8.148;2023-06-14T15:44:45;30.40;25.60
19248;DHT22;9758;48.640;8.148;2023-06-14T15:47:12;30.90;25.60
19248;DHT22;9758;48.640;8.148;2023-06-14T15:49:39;31.60;25.70